Terminal Aerodrome Forecast
Issued by NWS Shreveport, LA

Home | Current Version | Previous Version | Text Only | Print | Product List | Glossary On
Versions: 1 2 3 4 5 6 7 8 9 10 11 12 13 14 15
000
FTUS44 KSHV 242359
TAFTXK
TAF
KTXK 242359Z 2500/2524 VRB06KT P6SM VCTS BKN050CB
      TEMPO 2500/2502 5SM -TSRA BKN050CB
     FM250300 15005KT P6SM FEW060 BKN120 BKN250
     FM250900 18003KT P6SM BKN120 BKN250
     FM251200 30004KT P6SM BKN250
     FM251800 02006KT P6SM VCTS BKN050CB BKN150 BKN250=

USA.gov is the U.S. government's official web portal to all federal, state and local government web resources and services.